sensor_id;sensor_type;location;lat;lon;timestamp;pressure;altitude;pressure_sealevel;temperature;humidity
54900;BME280;40801;41.924;25.562;2023-05-27T15:41:16;99102.69;;;25.94;43.83
54900;BME280;40801;41.924;25.562;2023-05-27T15:43:41;99116.81;;;26.00;43.69
54900;BME280;40801;41.924;25.562;2023-05-27T15:46:06;99114.47;;;25.99;43.62
54900;BME280;40801;41.924;25.562;2023-05-27T15:48:32;99110.78;;;25.78;44.52
54900;BME280;40801;41.924;25.562;2023-05-27T15:50:58;99109.03;;;25.57;44.81
54900;BME280;40801;41.924;25.562;2023-05-27T15:53:23;99114.50;;;25.61;45.11
54900;BME280;40801;41.924;25.562;2023-05-27T15:55:49;99107.56;;;25.49;45.04
54900;BME280;40801;41.924;25.562;2023-05-27T15:58:14;99103.28;;;25.45;45.44
54900;BME280;40801;41.924;25.562;2023-05-27T16:00:40;99105.53;;;25.53;45.18
54900;BME280;40801;41.924;25.562;2023-05-27T16:03:05;99102.78;;;25.53;45.18
54900;BME280;40801;41.924;25.562;2023-05-27T16:05:31;99105.06;;;25.58;45.09
54900;BME280;40801;41.924;25.562;2023-05-27T16:07:57;99110.56;;;25.62;45.22
54900;BME280;40801;41.924;25.562;2023-05-27T16:10:22;99107.00;;;25.61;45.18
54900;BME280;40801;41.924;25.562;2023-05-27T16:12:47;99110.13;;;25.67;45.18
54900;BME280;40801;41.924;25.562;2023-05-27T16:15:13;99109.56;;;25.45;45.79
54900;BME280;40801;41.924;25.562;2023-05-27T16:17:39;99113.91;;;25.46;45.92
54900;BME280;40801;41.924;25.562;2023-05-27T16:20:04;99111.19;;;25.39;45.91
54900;BME280;40801;41.924;25.562;2023-05-27T16:22:30;99114.41;;;25.34;46.35
54900;BME280;40801;41.924;25.562;2023-05-27T16:24:55;99120.09;;;25.20;46.54
54900;BME280;40801;41.924;25.562;2023-05-27T16:27:21;99120.28;;;24.98;47.25
54900;BME280;40801;41.924;25.562;2023-05-27T16:29:46;99122.22;;;24.98;47.13
54900;BME280;40801;41.924;25.562;2023-05-27T16:32:12;99123.50;;;24.86;47.48
54900;BME280;40801;41.924;25.562;2023-05-27T16:34:37;99124.72;;;24.82;47.30
54900;BME280;40801;41.924;25.562;2023-05-27T16:37:03;99122.34;;;24.84;47.38
54900;BME280;40801;41.924;25.562;2023-05-27T16:39:28;99137.47;;;24.65;48.04
54900;BME280;40801;41.924;25.562;2023-05-27T16:41:53;99120.56;;;24.59;48.31
54900;BME280;40801;41.924;25.562;2023-05-27T16:44:21;99138.03;;;24.38;48.58
54900;BME280;40801;41.924;25.562;2023-05-27T16:46:47;99139.97;;;24.42;49.02
54900;BME280;40801;41.924;25.562;2023-05-27T16:49:12;99143.97;;;24.37;49.55
54900;BME280;40801;41.924;25.562;2023-05-27T16:51:37;99139.66;;;24.22;49.89
54900;BME280;40801;41.924;25.562;2023-05-27T16:54:03;99133.38;;;24.21;49.80
54900;BME280;40801;41.924;25.562;2023-05-27T16:56:29;99141.69;;;24.14;50.25
54900;BME280;40801;41.924;25.562;2023-05-27T16:58:54;99132.31;;;24.01;50.81
54900;BME280;40801;41.924;25.562;2023-05-27T17:01:21;99132.28;;;24.04;50.80
54900;BME280;40801;41.924;25.562;2023-05-27T17:03:46;99139.03;;;23.89;51.54
54900;BME280;40801;41.924;25.562;2023-05-27T17:06:11;99147.69;;;23.88;51.51
54900;BME280;40801;41.924;25.562;2023-05-27T17:08:37;99137.50;;;23.85;51.81
54900;BME280;40801;41.924;25.562;2023-05-27T17:11:02;99140.66;;;23.83;52.16
54900;BME280;40801;41.924;25.562;2023-05-27T17:13:28;99136.38;;;23.71;52.54
54900;BME280;40801;41.924;25.562;2023-05-27T17:15:53;99141.84;;;23.78;52.41
54900;BME280;40801;41.924;25.562;2023-05-27T17:18:20;99138.28;;;23.85;52.31
54900;BME280;40801;41.924;25.562;2023-05-27T17:20:46;99144.97;;;23.84;52.17
54900;BME280;40801;41.924;25.562;2023-05-27T17:23:11;99143.44;;;23.76;52.58
54900;BME280;40801;41.924;25.562;2023-05-27T17:25:36;99143.78;;;23.85;52.10
54900;BME280;40801;41.924;25.562;2023-05-27T17:28:02;99149.31;;;23.82;52.38
54900;BME280;40801;41.924;25.562;2023-05-27T17:30:27;99147.34;;;23.82;52.58
54900;BME280;40801;41.924;25.562;2023-05-27T17:32:53;99151.28;;;23.81;52.83
54900;BME280;40801;41.924;25.562;2023-05-27T17:35:19;99150.50;;;23.70;53.09
54900;BME280;40801;41.924;25.562;2023-05-27T17:37:44;99148.16;;;23.75;52.98
54900;BME280;40801;41.924;25.562;2023-05-27T17:40:10;99145.41;;;23.75;53.48
54900;BME280;40801;41.924;25.562;2023-05-27T17:42:36;99152.47;;;23.76;53.01
54900;BME280;40801;41.924;25.562;2023-05-27T17:45:02;99155.25;;;23.73;53.02
54900;BME280;40801;41.924;25.562;2023-05-27T17:47:28;99146.97;;;23.69;53.32
54900;BME280;40801;41.924;25.562;2023-05-27T17:49:53;99153.66;;;23.68;53.62
54900;BME280;40801;41.924;25.562;2023-05-27T17:52:19;99175.72;;;23.58;53.84
54900;BME280;40801;41.924;25.562;2023-05-27T17:54:44;99178.88;;;23.38;53.66
54900;BME280;40801;41.924;25.562;2023-05-27T17:57:10;99180.06;;;23.02;52.13
54900;BME280;40801;41.924;25.562;2023-05-27T17:59:35;99187.16;;;22.92;51.54
54900;BME280;40801;41.924;25.562;2023-05-27T18:02:01;99187.88;;;22.75;51.47
54900;BME280;40801;41.924;25.562;2023-05-27T18:04:26;99192.19;;;22.65;51.50
54900;BME280;40801;41.924;25.562;2023-05-27T18:06:51;99207.81;;;22.33;51.60
54900;BME280;40801;41.924;25.562;2023-05-27T18:09:17;99207.81;;;22.33;51.36
54900;BME280;40801;41.924;25.562;2023-05-27T18:11:43;99208.53;;;22.19;51.74
54900;BME280;40801;41.924;25.562;2023-05-27T18:14:08;99207.72;;;22.11;51.96
54900;BME280;40801;41.924;25.562;2023-05-27T18:16:34;99217.53;;;22.05;52.08
54900;BME280;40801;41.924;25.562;2023-05-27T18:18:59;99219.81;;;22.00;52.39
54900;BME280;40801;41.924;25.562;2023-05-27T18:21:25;99220.94;;;21.91;52.73
54900;BME280;40801;41.924;25.562;2023-05-27T18:23:50;99222.91;;;21.91;52.85
54900;BME280;40801;41.924;25.562;2023-05-27T18:26:16;99222.88;;;21.84;53.18
54900;BME280;40801;41.924;25.562;2023-05-27T18:28:41;99234.19;;;21.75;53.40
54900;BME280;40801;41.924;25.562;2023-05-27T18:31:07;99218.00;;;21.59;53.67
54900;BME280;40801;41.924;25.562;2023-05-27T18:33:33;99222.31;;;21.60;53.98
54900;BME280;40801;41.924;25.562;2023-05-27T18:35:58;99217.59;;;21.54;54.29
54900;BME280;40801;41.924;25.562;2023-05-27T18:38:24;99224.63;;;21.51;54.56
54900;BME280;40801;41.924;25.562;2023-05-27T18:41:08;99227.72;;;21.43;54.90
54900;BME280;40801;41.924;25.562;2023-05-27T18:43:34;99233.91;;;21.36;54.96
54900;BME280;40801;41.924;25.562;2023-05-27T18:45:59;99228.78;;;21.31;55.04
54900;BME280;40801;41.924;25.562;2023-05-27T18:48:26;99243.63;;;21.26;55.30
54900;BME280;40801;41.924;25.562;2023-05-27T18:50:53;99240.81;;;21.19;55.68
54900;BME280;40801;41.924;25.562;2023-05-27T18:53:19;99240.44;;;21.21;55.74
54900;BME280;40801;41.924;25.562;2023-05-27T18:55:44;99256.69;;;20.99;56.36
54900;BME280;40801;41.924;25.562;2023-05-27T18:58:11;99252.44;;;21.09;56.21
54900;BME280;40801;41.924;25.562;2023-05-27T19:00:36;99255.53;;;21.04;56.67
54900;BME280;40801;41.924;25.562;2023-05-27T19:03:05;99258.28;;;21.04;56.81
54900;BME280;40801;41.924;25.562;2023-05-27T19:05:30;99253.53;;;20.97;57.34
54900;BME280;40801;41.924;25.562;2023-05-27T19:07:57;99260.19;;;20.96;57.41
54900;BME280;40801;41.924;25.562;2023-05-27T19:10:22;99260.56;;;20.95;57.75
54900;BME280;40801;41.924;25.562;2023-05-27T19:12:48;99260.91;;;20.90;57.69
54900;BME280;40801;41.924;25.562;2023-05-27T19:15:13;99269.50;;;20.88;57.69
54900;BME280;40801;41.924;25.562;2023-05-27T19:17:38;99263.69;;;20.93;57.71
54900;BME280;40801;41.924;25.562;2023-05-27T19:20:06;99273.00;;;20.85;58.37
54900;BME280;40801;41.924;25.562;2023-05-27T19:22:32;99269.84;;;20.83;58.25
54900;BME280;40801;41.924;25.562;2023-05-27T19:24:57;99268.75;;;20.91;58.08
54900;BME280;40801;41.924;25.562;2023-05-27T19:27:24;99262.06;;;20.89;58.49
54900;BME280;40801;41.924;25.562;2023-05-27T19:29:50;99271.06;;;20.86;58.79
54900;BME280;40801;41.924;25.562;2023-05-27T19:32:15;99276.06;;;20.80;59.46
54900;BME280;40801;41.924;25.562;2023-05-27T19:34:41;99278.31;;;20.71;60.35
54900;BME280;40801;41.924;25.562;2023-05-27T19:37:06;99283.75;;;20.67;60.55
54900;BME280;40801;41.924;25.562;2023-05-27T19:39:32;99280.81;;;20.50;61.35
54900;BME280;40801;41.924;25.562;2023-05-27T19:41:57;99272.66;;;20.53;61.57
54900;BME280;40801;41.924;25.562;2023-05-27T19:44:23;99275.41;;;20.53;61.86
54900;BME280;40801;41.924;25.562;2023-05-27T19:46:49;99275.41;;;20.53;61.82
54900;BME280;40801;41.924;25.562;2023-05-27T19:49:15;99271.84;;;20.53;62.26
54900;BME280;40801;41.924;25.562;2023-05-27T19:51:41;99273.34;;;20.47;62.56
54900;BME280;40801;41.924;25.562;2023-05-27T19:54:06;99270.44;;;20.36;62.89
54900;BME280;40801;41.924;25.562;2023-05-27T19:56:32;99279.06;;;20.38;62.95
54900;BME280;40801;41.924;25.562;2023-05-27T19:58:58;99271.03;;;20.22;63.36
54900;BME280;40801;41.924;25.562;2023-05-27T20:01:24;99271.94;;;20.30;63.52
54900;BME280;40801;41.924;25.562;2023-05-27T20:03:50;99271.75;;;20.16;63.61
54900;BME280;40801;41.924;25.562;2023-05-27T20:06:16;99262.75;;;20.15;63.78
54900;BME280;40801;41.924;25.562;2023-05-27T20:08:41;99262.41;;;20.20;63.48
54900;BME280;40801;41.924;25.562;2023-05-27T20:11:08;99265.16;;;20.20;63.56
54900;BME280;40801;41.924;25.562;2023-05-27T20:13:34;99269.78;;;20.16;63.82
54900;BME280;40801;41.924;25.562;2023-05-27T20:16:00;99263.53;;;20.16;64.08
54900;BME280;40801;41.924;25.562;2023-05-27T20:18:25;99258.06;;;20.16;64.28
54900;BME280;40801;41.924;25.562;2023-05-27T20:20:51;99254.69;;;20.26;63.42
54900;BME280;40801;41.924;25.562;2023-05-27T20:23:17;99253.41;;;20.20;63.83
54900;BME280;40801;41.924;25.562;2023-05-27T20:25:42;99258.94;;;20.23;63.86
54900;BME280;40801;41.924;25.562;2023-05-27T20:28:09;99251.16;;;20.25;63.69
54900;BME280;40801;41.924;25.562;2023-05-27T20:30:35;99247.13;;;20.19;63.93
54900;BME280;40801;41.924;25.562;2023-05-27T20:33:01;99253.81;;;20.22;63.91
54900;BME280;40801;41.924;25.562;2023-05-27T20:35:27;99258.94;;;20.23;63.85
54900;BME280;40801;41.924;25.562;2023-05-27T20:37:53;99260.16;;;20.26;63.98
54900;BME280;40801;41.924;25.562;2023-05-27T20:40:18;99260.47;;;20.21;64.11
54900;BME280;40801;41.924;25.562;2023-05-27T20:42:45;99253.44;;;20.23;64.17
54900;BME280;40801;41.924;25.562;2023-05-27T20:45:10;99249.91;;;20.23;63.94
54900;BME280;40801;41.924;25.562;2023-05-27T20:47:36;99256.28;;;20.30;63.60
54900;BME280;40801;41.924;25.562;2023-05-27T20:50:02;99245.19;;;20.20;64.18
54900;BME280;40801;41.924;25.562;2023-05-27T20:52:27;99264.06;;;20.25;64.03
54900;BME280;40801;41.924;25.562;2023-05-27T20:54:53;99256.16;;;20.20;64.04
54900;BME280;40801;41.924;25.562;2023-05-27T20:57:19;99260.88;;;20.23;64.11
54900;BME280;40801;41.924;25.562;2023-05-27T20:59:44;99256.19;;;20.23;64.24
54900;BME280;40801;41.924;25.562;2023-05-27T21:02:12;99249.25;;;20.29;64.02
54900;BME280;40801;41.924;25.562;2023-05-27T21:04:38;99250.91;;;20.37;63.70
54900;BME280;40801;41.924;25.562;2023-05-27T21:07:04;99252.81;;;20.33;64.18
54900;BME280;40801;41.924;25.562;2023-05-27T21:09:32;99250.50;;;20.35;63.96
54900;BME280;40801;41.924;25.562;2023-05-27T21:11:58;99261.03;;;20.33;63.88
54900;BME280;40801;41.924;25.562;2023-05-27T21:14:23;99253.56;;;20.30;63.98
54900;BME280;40801;41.924;25.562;2023-05-27T21:16:49;99262.16;;;20.29;63.73
54900;BME280;40801;41.924;25.562;2023-05-27T21:19:14;99257.88;;;20.31;63.68
54900;BME280;40801;41.924;25.562;2023-05-27T21:21:40;99257.50;;;20.33;63.77
54900;BME280;40801;41.924;25.562;2023-05-27T21:24:06;99261.81;;;20.34;63.67
54900;BME280;40801;41.924;25.562;2023-05-27T21:26:32;99257.47;;;20.29;63.84
54900;BME280;40801;41.924;25.562;2023-05-27T21:28:57;99256.28;;;20.30;63.45
54900;BME280;40801;41.924;25.562;2023-05-27T21:31:23;99249.22;;;20.26;63.80
54900;BME280;40801;41.924;25.562;2023-05-27T21:33:48;99257.72;;;20.21;63.95
54900;BME280;40801;41.924;25.562;2023-05-27T21:36:14;99257.72;;;20.21;63.94
54900;BME280;40801;41.924;25.562;2023-05-27T21:38:39;99255.34;;;20.19;63.88
54900;BME280;40801;41.924;25.562;2023-05-27T21:41:06;99256.94;;;20.20;63.92
54900;BME280;40801;41.924;25.562;2023-05-27T21:43:32;99254.25;;;20.24;63.66
54900;BME280;40801;41.924;25.562;2023-05-27T21:45:57;99248.75;;;20.24;63.81
54900;BME280;40801;41.924;25.562;2023-05-27T21:48:23;99242.03;;;20.18;63.90
54900;BME280;40801;41.924;25.562;2023-05-27T21:50:48;99241.28;;;20.21;63.81
54900;BME280;40801;41.924;25.562;2023-05-27T21:53:14;99233.88;;;20.21;63.85
54900;BME280;40801;41.924;25.562;2023-05-27T21:55:39;99240.91;;;20.22;63.72
54900;BME280;40801;41.924;25.562;2023-05-27T21:58:05;99239.19;;;20.07;64.49
54900;BME280;40801;41.924;25.562;2023-05-27T22:00:36;99234.94;;;20.13;64.30
54900;BME280;40801;41.924;25.562;2023-05-27T22:03:02;99225.16;;;20.12;64.31
54900;BME280;40801;41.924;25.562;2023-05-27T22:05:28;99237.66;;;20.09;64.50
54900;BME280;40801;41.924;25.562;2023-05-27T22:07:54;99233.38;;;20.12;64.29
54900;BME280;40801;41.924;25.562;2023-05-27T22:10:19;99235.66;;;20.06;64.56
54900;BME280;40801;41.924;25.562;2023-05-27T22:12:45;99238.34;;;20.03;64.92
54900;BME280;40801;41.924;25.562;2023-05-27T22:15:10;99233.28;;;20.05;64.71
54900;BME280;40801;41.924;25.562;2023-05-27T22:17:35;99237.59;;;20.06;64.82
54900;BME280;40801;41.924;25.562;2023-05-27T22:20:01;99228.59;;;20.05;64.96
54900;BME280;40801;41.924;25.562;2023-05-27T22:22:26;99233.56;;;19.96;65.44
54900;BME280;40801;41.924;25.562;2023-05-27T22:24:52;99225.25;;;19.89;65.55
54900;BME280;40801;41.924;25.562;2023-05-27T22:27:17;99230.66;;;19.86;65.69
54900;BME280;40801;41.924;25.562;2023-05-27T22:29:43;99233.88;;;19.91;65.43
54900;BME280;40801;41.924;25.562;2023-05-27T22:32:08;99235.31;;;19.82;65.90
54900;BME280;40801;41.924;25.562;2023-05-27T22:34:34;99232.66;;;19.89;65.49
54900;BME280;40801;41.924;25.562;2023-05-27T22:36:59;99222.41;;;19.82;65.69
54900;BME280;40801;41.924;25.562;2023-05-27T22:39:24;99229.50;;;19.87;65.60
54900;BME280;40801;41.924;25.562;2023-05-27T22:41:50;99224.03;;;19.87;65.55
54900;BME280;40801;41.924;25.562;2023-05-27T22:44:15;99217.81;;;19.90;65.50
54900;BME280;40801;41.924;25.562;2023-05-27T22:46:41;99218.34;;;19.99;65.08
54900;BME280;40801;41.924;25.562;2023-05-27T22:49:06;99221.09;;;19.99;65.23
54900;BME280;40801;41.924;25.562;2023-05-27T22:51:34;99215.63;;;19.99;65.55
54900;BME280;40801;41.924;25.562;2023-05-27T22:53:59;99208.22;;;20.03;64.99
54900;BME280;40801;41.924;25.562;2023-05-27T22:56:24;99212.84;;;19.95;65.15
54900;BME280;40801;41.924;25.562;2023-05-27T22:58:51;99213.19;;;19.94;65.40
54900;BME280;40801;41.924;25.562;2023-05-27T23:01:16;99213.63;;;19.96;65.51
54900;BME280;40801;41.924;25.562;2023-05-27T23:03:42;99203.88;;;19.98;65.17
54900;BME280;40801;41.924;25.562;2023-05-27T23:06:07;99204.91;;;19.90;65.30
54900;BME280;40801;41.924;25.562;2023-05-27T23:08:33;99197.91;;;19.93;65.30
54900;BME280;40801;41.924;25.562;2023-05-27T23:10:58;99196.66;;;19.87;65.74
54900;BME280;40801;41.924;25.562;2023-05-27T23:13:23;99191.25;;;19.90;65.72
54900;BME280;40801;41.924;25.562;2023-05-27T23:15:49;99185.31;;;19.85;65.81
54900;BME280;40801;41.924;25.562;2023-05-27T23:18:14;99196.66;;;19.87;65.58
54900;BME280;40801;41.924;25.562;2023-05-27T23:20:40;99186.06;;;19.82;65.73
54900;BME280;40801;41.924;25.562;2023-05-27T23:23:06;99182.91;;;19.79;65.75
54900;BME280;40801;41.924;25.562;2023-05-27T23:25:32;99180.13;;;19.76;66.05
54900;BME280;40801;41.924;25.562;2023-05-27T23:27:58;99183.97;;;19.71;66.45
54900;BME280;40801;41.924;25.562;2023-05-27T23:30:23;99184.34;;;19.70;66.57
54900;BME280;40801;41.924;25.562;2023-05-27T23:32:49;99183.72;;;19.54;67.43
54900;BME280;40801;41.924;25.562;2023-05-27T23:35:19;99178.75;;;19.63;66.87
54900;BME280;40801;41.924;25.562;2023-05-27T23:37:45;99182.59;;;19.58;67.05
54900;BME280;40801;41.924;25.562;2023-05-27T23:40:11;99170.88;;;19.58;67.07
54900;BME280;40801;41.924;25.562;2023-05-27T23:42:36;99168.72;;;19.44;67.60
54900;BME280;40801;41.924;25.562;2023-05-27T23:45:02;99170.69;;;19.47;67.71
54900;BME280;40801;41.924;25.562;2023-05-27T23:47:28;99174.72;;;19.53;67.19
54900;BME280;40801;41.924;25.562;2023-05-27T23:49:54;99173.97;;;19.56;67.19
54900;BME280;40801;41.924;25.562;2023-05-27T23:52:19;99170.09;;;19.57;67.14
54900;BME280;40801;41.924;25.562;2023-05-27T23:54:46;99164.97;;;19.56;67.21
54900;BME280;40801;41.924;25.562;2023-05-27T23:57:12;99176.38;;;19.61;67.05
54900;BME280;40801;41.924;25.562;2023-05-27T23:59:38;99169.28;;;19.57;67.06
